createdAt,value
2017-05-22T00:01:17.155Z,73.75
2017-05-22T00:03:43.491Z,71.91
2017-05-22T00:06:09.844Z,68.62
2017-05-22T00:08:36.219Z,66.44
2017-05-22T00:11:02.585Z,68.06
2017-05-22T00:13:29.170Z,75.19
2017-05-22T00:15:55.525Z,75.66
2017-05-22T00:18:22.019Z,75.85
2017-05-22T00:20:48.537Z,76.09
2017-05-22T00:23:15.097Z,75.95
2017-05-22T00:25:41.579Z,75.60
2017-05-22T00:28:08.282Z,71.77
2017-05-22T00:30:34.659Z,72.55
2017-05-22T00:33:01.094Z,75.17
2017-05-22T00:35:31.892Z,78.06
2017-05-22T00:37:58.800Z,80.88
2017-05-22T00:40:25.233Z,75.50
2017-05-22T00:42:52.176Z,74.05
2017-05-22T00:45:18.592Z,70.20
2017-05-22T00:47:44.929Z,73.54
2017-05-22T00:50:11.268Z,71.41
2017-05-22T00:52:37.663Z,75.87
2017-05-22T00:55:04.041Z,75.37
2017-05-22T00:57:30.433Z,79.13
2017-05-22T00:59:56.773Z,77.10
2017-05-22T01:02:23.101Z,70.63
2017-05-22T01:04:49.518Z,70.28
2017-05-22T01:07:15.879Z,75.19
2017-05-22T01:09:42.230Z,78.29
2017-05-22T01:12:08.598Z,78.41
2017-05-22T01:14:34.939Z,76.16
2017-05-22T01:17:01.267Z,78.50
2017-05-22T01:19:27.751Z,77.92
2017-05-22T01:21:54.152Z,79.35
2017-05-22T01:24:20.493Z,80.08
2017-05-22T01:26:47.120Z,80.87
2017-05-22T01:29:13.468Z,75.87
2017-05-22T01:31:39.845Z,75.17
2017-05-22T01:34:06.202Z,75.77
2017-05-22T01:36:32.633Z,76.61
2017-05-22T01:38:58.971Z,76.65
2017-05-22T01:41:25.333Z,74.75
2017-05-22T01:43:51.684Z,77.34
2017-05-22T01:46:18.057Z,78.36
2017-05-22T01:48:44.391Z,74.31
2017-05-22T01:51:11.238Z,74.08
2017-05-22T01:53:37.608Z,77.20
2017-05-22T01:56:03.971Z,74.85
2017-05-22T01:58:30.288Z,75.99
2017-05-22T02:00:56.657Z,71.24
2017-05-22T02:03:23.001Z,76.91
2017-05-22T02:05:49.334Z,73.43
2017-05-22T02:08:15.670Z,75.42
2017-05-22T02:10:42.004Z,76.64
2017-05-22T02:13:08.361Z,73.27
2017-05-22T02:15:34.701Z,78.41
2017-05-22T02:18:01.043Z,80.10
2017-05-22T02:20:27.400Z,77.38
2017-05-22T02:22:53.751Z,78.08
2017-05-22T02:25:20.109Z,80.83
2017-05-22T02:27:46.493Z,80.71
2017-05-22T02:30:12.868Z,78.58
2017-05-22T02:32:39.235Z,79.55
2017-05-22T02:35:05.616Z,81.99
2017-05-22T02:37:32.016Z,80.95
2017-05-22T02:39:58.378Z,75.10
2017-05-22T02:42:24.817Z,77.93
2017-05-22T02:44:51.173Z,78.47
2017-05-22T02:47:17.526Z,74.11
2017-05-22T02:49:43.872Z,76.86
2017-05-22T02:52:10.201Z,79.30
2017-05-22T02:54:36.559Z,80.66
2017-05-22T02:57:03.123Z,80.52
2017-05-22T02:59:29.469Z,79.68
2017-05-22T03:01:55.834Z,81.13
2017-05-22T03:04:22.147Z,81.42
2017-05-22T03:06:48.486Z,79.78
2017-05-22T03:09:14.810Z,79.54
2017-05-22T03:11:41.148Z,81.89
2017-05-22T03:14:07.486Z,81.58
2017-05-22T03:16:33.828Z,81.10
2017-05-22T03:19:00.161Z,79.46
2017-05-22T03:21:26.539Z,76.30
2017-05-22T03:23:52.868Z,79.67
2017-05-22T03:26:19.197Z,78.74
2017-05-22T03:28:45.577Z,83.60
2017-05-22T03:31:11.954Z,84.10
2017-05-22T03:33:38.288Z,80.18
2017-05-22T03:36:04.702Z,81.35
2017-05-22T03:38:31.138Z,79.99
2017-05-22T03:40:57.490Z,80.30
2017-05-22T03:43:23.853Z,78.06
2017-05-22T03:45:50.212Z,76.77
2017-05-22T03:48:16.604Z,77.38
2017-05-22T03:50:42.969Z,80.57
2017-05-22T03:53:09.645Z,79.16
2017-05-22T03:55:36.404Z,83.01
2017-05-22T03:58:02.760Z,83.36
2017-05-22T04:00:29.084Z,83.98
2017-05-22T04:02:55.448Z,83.76
2017-05-22T04:05:21.814Z,81.88
2017-05-22T04:07:48.165Z,83.63
2017-05-22T04:10:14.534Z,83.99
2017-05-22T04:12:40.860Z,85.15
2017-05-22T04:15:07.201Z,83.35
2017-05-22T04:17:33.538Z,84.50
2017-05-22T04:19:59.888Z,84.07
2017-05-22T04:22:26.258Z,84.36
2017-05-22T04:24:52.624Z,84.28
2017-05-22T04:27:18.953Z,84.82
2017-05-22T04:29:45.316Z,83.92
2017-05-22T04:32:11.680Z,84.06
2017-05-22T04:34:38.079Z,84.27
2017-05-22T04:37:04.458Z,81.92
2017-05-22T04:39:30.831Z,82.39
2017-05-22T04:41:57.173Z,82.86
2017-05-22T04:44:23.573Z,84.31
2017-05-22T04:46:49.928Z,84.58
2017-05-22T04:49:16.303Z,85.12
2017-05-22T04:51:42.668Z,82.22
2017-05-22T04:54:09.067Z,81.98
2017-05-22T04:56:35.434Z,81.25
2017-05-22T04:59:01.752Z,79.67
2017-05-22T05:01:28.101Z,76.37
2017-05-22T05:03:54.470Z,77.30
2017-05-22T05:06:20.815Z,79.36
2017-05-22T05:08:47.177Z,81.08
2017-05-22T05:11:13.533Z,81.97
2017-05-22T05:13:39.918Z,81.12
2017-05-22T05:16:06.255Z,78.43
2017-05-22T05:18:32.598Z,79.53
2017-05-22T05:20:58.927Z,81.77
2017-05-22T05:23:25.359Z,81.80
2017-05-22T05:25:51.681Z,82.60
2017-05-22T05:28:18.026Z,80.51
2017-05-22T05:30:44.413Z,78.89
2017-05-22T05:33:10.754Z,81.71
2017-05-22T05:35:37.101Z,80.97
2017-05-22T05:38:03.474Z,81.64
2017-05-22T05:40:29.829Z,81.24
2017-05-22T05:42:56.260Z,81.86
2017-05-22T05:45:22.617Z,77.67
2017-05-22T05:47:48.955Z,79.90
2017-05-22T05:50:15.357Z,79.13
2017-05-22T05:52:41.712Z,80.13
2017-05-22T05:55:08.079Z,80.39
2017-05-22T05:57:34.414Z,80.66
2017-05-22T06:00:00.797Z,78.98
2017-05-22T06:02:27.168Z,78.71
2017-05-22T06:04:53.547Z,75.95
2017-05-22T06:07:19.910Z,76.87
2017-05-22T06:09:46.295Z,72.70
2017-05-22T06:12:13.075Z,73.12
2017-05-22T06:14:39.426Z,75.63
2017-05-22T06:17:05.777Z,72.87
2017-05-22T06:19:32.112Z,74.22
2017-05-22T06:21:58.447Z,71.47
2017-05-22T06:24:24.793Z,73.71
2017-05-22T06:26:51.154Z,71.45
2017-05-22T06:29:17.467Z,73.33
2017-05-22T06:31:43.795Z,70.53
2017-05-22T06:34:10.149Z,71.53
2017-05-22T06:36:36.482Z,70.59
2017-05-22T06:39:02.944Z,70.80
2017-05-22T06:41:29.281Z,67.46
2017-05-22T06:43:55.603Z,63.20
2017-05-22T06:46:21.965Z,62.06
2017-05-22T06:48:48.246Z,62.60
2017-05-22T06:51:14.579Z,61.73
2017-05-22T06:53:40.891Z,61.99
2017-05-22T06:56:07.200Z,62.03
2017-05-22T06:58:33.511Z,55.66
2017-05-22T07:00:59.844Z,59.45
2017-05-22T07:03:26.189Z,60.57
2017-05-22T07:05:52.522Z,59.98
2017-05-22T07:08:18.859Z,60.54
2017-05-22T07:10:45.174Z,55.37
2017-05-22T07:13:11.509Z,56.04
2017-05-22T07:15:37.846Z,55.86
2017-05-22T07:18:04.148Z,54.77
2017-05-22T07:20:30.478Z,53.93
2017-05-22T07:22:56.816Z,52.96
2017-05-22T07:25:23.173Z,53.26
2017-05-22T07:27:49.500Z,50.73
2017-05-22T07:30:15.822Z,50.80
2017-05-22T07:32:42.131Z,50.94
2017-05-22T07:35:08.445Z,52.27
2017-05-22T07:37:34.791Z,51.14
2017-05-22T07:40:01.116Z,48.69
2017-05-22T07:42:27.921Z,50.48
2017-05-22T07:44:54.252Z,51.15
2017-05-22T07:47:20.577Z,51.32
2017-05-22T07:49:46.894Z,53.34
2017-05-22T07:52:13.206Z,51.08
2017-05-22T07:54:39.517Z,51.52
2017-05-22T07:57:05.887Z,49.28
2017-05-22T07:59:32.239Z,48.40
2017-05-22T08:01:58.594Z,48.87
2017-05-22T08:04:24.953Z,50.88
2017-05-22T08:06:51.322Z,48.41
2017-05-22T08:09:17.685Z,49.06
2017-05-22T08:11:44.008Z,49.54
2017-05-22T08:14:10.347Z,48.71
2017-05-22T08:16:36.664Z,51.35
2017-05-22T08:19:02.967Z,48.08
2017-05-22T08:21:29.291Z,52.09
2017-05-22T08:23:55.587Z,47.93
2017-05-22T08:26:21.923Z,46.81
2017-05-22T08:28:48.235Z,44.85
2017-05-22T08:31:14.556Z,46.70
2017-05-22T08:33:40.896Z,44.83
2017-05-22T08:36:07.229Z,44.30
2017-05-22T08:38:33.574Z,45.01
2017-05-22T08:40:59.888Z,45.97
2017-05-22T08:43:26.220Z,42.00
2017-05-22T08:45:52.577Z,40.88
2017-05-22T08:48:18.909Z,42.30
2017-05-22T08:50:45.223Z,41.00
2017-05-22T08:53:11.582Z,40.50
2017-05-22T08:55:37.949Z,40.71
2017-05-22T08:58:04.266Z,40.80
2017-05-22T09:00:30.591Z,41.38
2017-05-22T09:02:56.898Z,40.82
2017-05-22T09:05:23.255Z,41.14
2017-05-22T09:07:49.590Z,43.58
2017-05-22T09:10:16.016Z,43.34
2017-05-22T09:12:42.347Z,41.42
2017-05-22T09:15:08.705Z,41.05
2017-05-22T09:17:35.054Z,42.40
2017-05-22T09:20:01.416Z,43.10
2017-05-22T09:22:27.753Z,42.54
2017-05-22T09:24:54.076Z,42.46
2017-05-22T09:27:20.426Z,37.75
2017-05-22T09:29:46.771Z,41.90
2017-05-22T09:32:13.113Z,41.44
2017-05-22T09:34:39.548Z,41.28
2017-05-22T09:37:05.929Z,40.40
2017-05-22T09:39:32.268Z,40.51
2017-05-22T09:41:58.637Z,39.74
2017-05-22T09:44:24.967Z,38.55
2017-05-22T09:46:51.303Z,38.42
2017-05-22T09:49:17.642Z,37.01
2017-05-22T09:51:43.967Z,38.28
2017-05-22T09:54:10.311Z,37.53
2017-05-22T09:56:36.637Z,38.42
2017-05-22T09:59:02.976Z,38.95
2017-05-22T10:01:29.321Z,40.94
2017-05-22T10:03:55.666Z,38.86
2017-05-22T10:06:22.039Z,38.41
2017-05-22T10:08:48.369Z,38.03
2017-05-22T10:11:14.690Z,38.61
2017-05-22T10:13:41.055Z,38.07
2017-05-22T10:16:07.381Z,37.65
2017-05-22T10:18:33.700Z,38.21
2017-05-22T10:21:00.064Z,36.79
2017-05-22T10:23:26.358Z,37.50
2017-05-22T10:25:52.717Z,37.93
2017-05-22T10:28:19.035Z,38.95
2017-05-22T10:30:45.376Z,38.34
2017-05-22T10:33:11.729Z,37.73
2017-05-22T10:35:38.062Z,37.53
2017-05-22T10:38:04.379Z,37.27
2017-05-22T10:40:30.733Z,37.42
2017-05-22T10:42:57.074Z,35.43
2017-05-22T10:45:23.407Z,36.47
2017-05-22T10:47:50.043Z,36.37
2017-05-22T10:50:16.355Z,35.33
2017-05-22T10:52:42.736Z,36.91
2017-05-22T10:55:09.127Z,35.45
2017-05-22T10:57:35.520Z,35.55
2017-05-22T11:00:01.903Z,34.37
2017-05-22T11:02:28.284Z,35.80
2017-05-22T11:04:54.675Z,34.81
2017-05-22T11:07:21.020Z,35.64
2017-05-22T11:09:47.323Z,35.31
2017-05-22T11:12:13.639Z,33.92
2017-05-22T11:14:39.994Z,33.90
2017-05-22T11:17:06.329Z,35.49
2017-05-22T11:19:32.684Z,35.26
2017-05-22T11:21:59.022Z,39.67
2017-05-22T11:24:25.348Z,40.38
2017-05-22T11:26:51.701Z,37.25
2017-05-22T11:29:18.014Z,33.91
2017-05-22T11:31:44.390Z,32.50
2017-05-22T11:34:10.700Z,31.47
2017-05-22T11:36:37.014Z,32.48
2017-05-22T11:39:03.475Z,31.73
2017-05-22T11:41:29.833Z,30.43
2017-05-22T11:43:56.148Z,31.98
2017-05-22T11:46:22.466Z,29.72
2017-05-22T11:48:48.831Z,33.77
2017-05-22T11:51:15.135Z,33.36
2017-05-22T11:53:41.456Z,34.56
2017-05-22T11:56:07.782Z,34.42
2017-05-22T11:58:34.162Z,32.56
2017-05-22T12:01:00.533Z,35.83
2017-05-22T12:03:26.880Z,33.13
2017-05-22T12:05:53.194Z,33.27
2017-05-22T12:08:19.527Z,35.38
2017-05-22T12:10:45.854Z,34.74
2017-05-22T12:13:12.186Z,34.00
2017-05-22T12:15:38.511Z,32.83
2017-05-22T12:18:04.836Z,35.35
2017-05-22T12:20:31.211Z,34.38
2017-05-22T12:22:57.536Z,32.67
2017-05-22T12:25:23.883Z,31.37
2017-05-22T12:27:50.262Z,32.72
2017-05-22T12:30:16.600Z,33.32
2017-05-22T12:32:42.923Z,33.91
2017-05-22T12:35:09.248Z,34.32
2017-05-22T12:37:35.619Z,33.57
2017-05-22T12:40:01.955Z,33.66
2017-05-22T12:42:28.246Z,32.17
2017-05-22T12:44:54.575Z,31.50
2017-05-22T12:47:20.902Z,34.31
2017-05-22T12:49:47.236Z,32.66
2017-05-22T12:52:13.579Z,34.39
2017-05-22T12:54:39.890Z,31.04
2017-05-22T12:57:06.216Z,31.59
2017-05-22T12:59:32.539Z,32.26
2017-05-22T13:01:58.828Z,30.46
2017-05-22T13:04:25.149Z,28.59
2017-05-22T13:06:51.458Z,28.32
2017-05-22T13:09:17.777Z,27.74
2017-05-22T13:11:44.111Z,27.05
2017-05-22T13:14:10.426Z,27.22
2017-05-22T13:16:36.726Z,29.02
2017-05-22T13:19:03.067Z,28.27
2017-05-22T13:21:29.403Z,28.95
2017-05-22T13:23:55.736Z,28.17
2017-05-22T13:26:22.102Z,28.60
2017-05-22T13:28:48.421Z,28.68
2017-05-22T13:31:14.740Z,29.80
2017-05-22T13:33:41.063Z,28.79
2017-05-22T13:36:07.398Z,29.42
2017-05-22T13:38:33.714Z,27.72
2017-05-22T13:41:00.051Z,28.92
2017-05-22T13:43:26.373Z,26.61
2017-05-22T13:45:57.957Z,28.41
2017-05-22T13:48:24.293Z,28.64
2017-05-22T13:50:50.637Z,29.55
2017-05-22T13:53:16.958Z,28.67
2017-05-22T13:55:43.323Z,28.12
2017-05-22T13:58:09.663Z,25.20
2017-05-22T14:00:36.049Z,25.92
2017-05-22T14:03:02.386Z,24.62
2017-05-22T14:05:28.686Z,23.70
2017-05-22T14:07:55.036Z,23.79
2017-05-22T14:10:21.362Z,24.53
2017-05-22T14:12:47.680Z,24.38
2017-05-22T14:15:14.011Z,24.70
2017-05-22T14:17:40.380Z,23.30
2017-05-22T14:20:06.736Z,24.48
2017-05-22T14:22:33.093Z,23.73
2017-05-22T14:24:59.432Z,23.91
2017-05-22T14:27:25.771Z,24.32
2017-05-22T14:29:52.097Z,26.29
2017-05-22T14:32:18.438Z,26.09
2017-05-22T14:34:44.786Z,26.31
2017-05-22T14:37:11.106Z,26.02
2017-05-22T14:39:37.837Z,24.46
2017-05-22T14:42:04.176Z,26.65
2017-05-22T14:44:30.526Z,26.90
2017-05-22T14:46:56.845Z,25.69
2017-05-22T14:49:23.186Z,25.76
2017-05-22T14:51:49.542Z,25.09
2017-05-22T14:54:15.875Z,26.80
2017-05-22T14:56:42.434Z,26.78
2017-05-22T14:59:08.783Z,27.11
2017-05-22T15:01:35.126Z,27.84
2017-05-22T15:04:01.451Z,27.00
2017-05-22T15:06:27.786Z,30.11
2017-05-22T15:08:54.129Z,30.37
2017-05-22T15:11:20.430Z,28.48
2017-05-22T15:13:46.750Z,30.24
2017-05-22T15:16:13.050Z,29.39
2017-05-22T15:18:39.394Z,25.82
2017-05-22T15:21:05.790Z,26.72
2017-05-22T15:23:32.112Z,28.42
2017-05-22T15:25:58.445Z,28.83
2017-05-22T15:28:24.750Z,27.13
2017-05-22T15:30:51.065Z,28.76
2017-05-22T15:33:17.429Z,28.27
2017-05-22T15:35:43.745Z,27.62
2017-05-22T15:38:10.103Z,26.72
2017-05-22T15:40:36.440Z,28.03
2017-05-22T15:43:02.871Z,25.39
2017-05-22T15:45:29.259Z,24.85
2017-05-22T15:47:55.602Z,28.36
2017-05-22T15:50:21.945Z,27.82
2017-05-22T15:52:48.279Z,28.62
2017-05-22T15:55:14.625Z,29.14
2017-05-22T15:57:40.985Z,30.05
2017-05-22T16:00:07.318Z,30.03
2017-05-22T16:02:33.667Z,29.05
2017-05-22T16:05:00.005Z,29.62
2017-05-22T16:07:26.373Z,31.95
2017-05-22T16:09:52.694Z,33.48
2017-05-22T16:12:19.325Z,31.37
2017-05-22T16:14:46.426Z,32.09
2017-05-22T16:17:13.197Z,32.04
2017-05-22T16:19:39.843Z,31.94
2017-05-22T16:22:06.185Z,32.67
2017-05-22T16:24:32.567Z,33.14
2017-05-22T16:26:59.633Z,30.40
2017-05-22T16:29:25.990Z,30.48
2017-05-22T16:31:52.328Z,31.12
2017-05-22T16:34:18.644Z,31.19
2017-05-22T16:36:45.009Z,31.10
2017-05-22T16:39:11.340Z,31.24
2017-05-22T16:41:37.917Z,31.84
2017-05-22T16:44:04.294Z,32.41
2017-05-22T16:46:30.639Z,32.23
2017-05-22T16:48:57.351Z,30.90
2017-05-22T16:51:23.789Z,31.95
2017-05-22T16:53:50.119Z,33.66
2017-05-22T16:56:16.486Z,31.63
2017-05-22T16:58:42.860Z,30.33
2017-05-22T17:01:09.179Z,31.62
2017-05-22T17:03:35.482Z,32.52
2017-05-22T17:06:01.806Z,32.07
2017-05-22T17:08:28.139Z,31.93
2017-05-22T17:10:54.507Z,33.56
2017-05-22T17:13:20.825Z,34.86
2017-05-22T17:15:47.190Z,32.86
2017-05-22T17:18:13.528Z,33.52
2017-05-22T17:20:39.881Z,34.13
2017-05-22T17:23:06.200Z,34.36
2017-05-22T17:25:32.585Z,35.02
2017-05-22T17:27:58.896Z,34.98
2017-05-22T17:30:25.234Z,37.34
2017-05-22T17:32:51.586Z,36.57
2017-05-22T17:35:17.919Z,36.09
2017-05-22T17:37:44.270Z,35.40
2017-05-22T17:40:10.618Z,38.08
2017-05-22T17:42:36.957Z,37.75
2017-05-22T17:45:03.331Z,36.95
2017-05-22T17:47:29.667Z,37.20
2017-05-22T17:49:56.005Z,37.92
2017-05-22T17:52:22.362Z,38.07
2017-05-22T17:54:48.740Z,36.15
2017-05-22T17:57:15.079Z,37.37
2017-05-22T17:59:41.467Z,36.84
2017-05-22T18:02:07.825Z,36.97
2017-05-22T18:04:34.171Z,38.50
2017-05-22T18:07:00.507Z,39.95
2017-05-22T18:09:26.830Z,38.56
2017-05-22T18:11:53.191Z,38.61
2017-05-22T18:14:19.511Z,38.62
2017-05-22T18:16:45.835Z,39.05
2017-05-22T18:19:12.197Z,39.32
2017-05-22T18:21:38.532Z,39.54
2017-05-22T18:24:04.875Z,39.78
2017-05-22T18:26:31.210Z,40.80
2017-05-22T18:28:57.556Z,40.93
2017-05-22T18:31:23.862Z,40.51
2017-05-22T18:33:50.239Z,40.63
2017-05-22T18:36:16.658Z,40.84
2017-05-22T18:38:42.998Z,41.17
2017-05-22T18:41:09.346Z,42.74
2017-05-22T18:43:35.693Z,40.47
2017-05-22T18:46:02.059Z,40.84
2017-05-22T18:48:28.415Z,40.51
2017-05-22T18:50:54.805Z,41.10
2017-05-22T18:53:21.166Z,41.95
2017-05-22T18:55:47.476Z,42.29
2017-05-22T18:58:13.835Z,43.39
2017-05-22T19:00:40.221Z,42.84
2017-05-22T19:03:06.562Z,42.99
2017-05-22T19:05:32.909Z,44.01
2017-05-22T19:07:59.263Z,44.40
2017-05-22T19:10:25.656Z,44.51
2017-05-22T19:12:52.295Z,44.11
2017-05-22T19:15:19.022Z,44.27
2017-05-22T19:17:46.500Z,44.89
2017-05-22T19:20:13.902Z,44.92
2017-05-22T19:22:40.269Z,44.28
2017-05-22T19:25:06.984Z,44.13
2017-05-22T19:27:33.361Z,44.28
2017-05-22T19:30:00.244Z,43.96
2017-05-22T19:32:26.938Z,45.30
2017-05-22T19:34:53.317Z,44.97
2017-05-22T19:37:19.702Z,45.99
2017-05-22T19:39:46.114Z,47.84
2017-05-22T19:42:13.079Z,50.11
2017-05-22T19:44:40.407Z,51.07
2017-05-22T19:47:07.263Z,47.96
2017-05-22T19:49:33.753Z,49.93
2017-05-22T19:52:00.289Z,52.72
2017-05-22T19:54:26.724Z,51.10
2017-05-22T19:56:53.147Z,55.19
2017-05-22T19:59:24.578Z,55.28
2017-05-22T20:01:54.679Z,54.51
2017-05-22T20:04:31.174Z,49.36
2017-05-22T20:06:58.863Z,51.77
2017-05-22T20:09:25.362Z,54.33
2017-05-22T20:11:51.730Z,53.62
2017-05-22T20:16:55.340Z,53.56
2017-05-22T20:19:21.751Z,58.03
2017-05-22T20:21:48.333Z,59.33
2017-05-22T20:24:14.770Z,59.71
2017-05-22T20:26:41.194Z,54.31
2017-05-22T20:29:08.202Z,55.50
2017-05-22T20:31:34.534Z,53.18
2017-05-22T20:34:00.909Z,56.32
2017-05-22T20:36:27.262Z,56.74
2017-05-22T20:38:53.802Z,58.66
2017-05-22T20:41:20.295Z,54.24
2017-05-22T20:43:46.993Z,59.89
2017-05-22T20:46:13.474Z,59.20
2017-05-22T20:48:40.127Z,58.36
2017-05-22T20:51:06.470Z,54.10
2017-05-22T20:53:33.190Z,55.05
2017-05-22T20:56:01.183Z,53.09
2017-05-22T20:58:27.648Z,52.48
2017-05-22T21:00:54.147Z,56.37
2017-05-22T21:03:20.642Z,57.84
2017-05-22T21:05:47.242Z,62.12
2017-05-22T21:08:13.599Z,64.23
2017-05-22T21:10:39.940Z,62.40
2017-05-22T21:13:07.005Z,65.14
2017-05-22T21:15:33.385Z,61.53
2017-05-22T21:17:59.723Z,60.77
2017-05-22T21:20:26.074Z,59.78
2017-05-22T21:22:52.438Z,60.13
2017-05-22T21:25:19.022Z,61.24
2017-05-22T21:27:45.540Z,63.49
2017-05-22T21:30:12.424Z,59.41
2017-05-22T21:32:39.547Z,55.71
2017-05-22T21:35:05.857Z,58.47
2017-05-22T21:37:33.897Z,56.61
2017-05-22T21:40:02.503Z,61.41
2017-05-22T21:42:28.890Z,61.37
2017-05-22T21:44:55.207Z,66.01
2017-05-22T21:47:21.571Z,66.83
2017-05-22T21:49:47.896Z,67.14
2017-05-22T21:52:14.295Z,65.00
2017-05-22T21:54:40.649Z,63.21
2017-05-22T21:57:07.007Z,61.59
2017-05-22T21:59:33.340Z,58.31
2017-05-22T22:02:01.256Z,58.85
2017-05-22T22:04:27.747Z,64.05
2017-05-22T22:06:54.142Z,59.24
2017-05-22T22:09:20.482Z,68.33
2017-05-22T22:11:46.853Z,69.36
2017-05-22T22:14:13.188Z,64.47
2017-05-22T22:16:39.592Z,62.17
2017-05-22T22:19:05.937Z,58.68
2017-05-22T22:21:32.979Z,58.75
2017-05-22T22:24:00.063Z,60.28
2017-05-22T22:26:26.950Z,60.53
2017-05-22T22:28:54.239Z,60.39
2017-05-22T22:31:20.652Z,60.04
2017-05-22T22:33:46.980Z,60.13
2017-05-22T22:36:13.328Z,62.55
2017-05-22T22:38:39.674Z,63.14
2017-05-22T22:41:06.026Z,59.88
2017-05-22T22:43:32.335Z,61.20
2017-05-22T22:45:58.666Z,60.68
2017-05-22T22:48:25.082Z,62.74
2017-05-22T22:50:51.417Z,66.52
2017-05-22T22:53:17.762Z,67.68
2017-05-22T22:55:44.161Z,70.09
2017-05-22T22:58:10.590Z,72.44
2017-05-22T23:00:36.895Z,69.05
2017-05-22T23:03:03.229Z,69.02
2017-05-22T23:05:29.570Z,69.99
2017-05-22T23:07:55.888Z,66.07
2017-05-22T23:10:22.201Z,66.43
2017-05-22T23:12:48.540Z,68.35
2017-05-22T23:15:14.880Z,64.59
2017-05-22T23:17:41.268Z,64.68
2017-05-22T23:20:07.599Z,63.16
2017-05-22T23:22:33.941Z,68.48
2017-05-22T23:25:00.263Z,68.91
2017-05-22T23:27:26.618Z,72.29
2017-05-22T23:29:52.963Z,72.94
2017-05-22T23:32:19.322Z,74.58
2017-05-22T23:34:45.668Z,73.05
2017-05-22T23:37:12.079Z,75.47
2017-05-22T23:39:38.410Z,74.47
2017-05-22T23:42:04.771Z,71.10
2017-05-22T23:44:31.087Z,74.68
2017-05-22T23:46:57.472Z,68.57
2017-05-22T23:49:23.826Z,71.03
2017-05-22T23:51:50.163Z,69.72
2017-05-22T23:54:16.497Z,71.95
2017-05-22T23:56:42.894Z,66.39
2017-05-22T23:59:09.189Z,69.30
